Troy, TX

11:43 AM CDT on April 25, 2015 (GMT -0500)
Skylark Field | | Change Station
CLOSE
Current Station
Airport
Location: Killeen,
Elevation: 846 ft
Nearby Weather Stations

Elev 846 ft 31.09 °N, 97.69 °W | Updated 8 minutes ago

Clear
Clear
82 °F
Feels Like 82 °F
N
13
Wind Variable Wind from West
Gusts 18 mph

Today
High -- | Low -- °F
--% Chance of Precip.
Yesterday
High -- | Low -- °F
Precip. -- in
6:50 AM 8:04 PM
Waxing Crescent, 47% visible
Pressure 29.79 in
Visibility 10.0 miles
Clouds Clear
Dew Point 48 °F
Humidity 30%
Rainfall 0.00 in
Snow Depth Not available.
UV 9 out of 12
Pollen 8.70 out of 12
Air Quality Not available.
Flu Activity Local Activity
METAR KILE 251635Z AUTO 27011G16KT 10SM CLR 28/09 A2979 RMK AO1

More Conditions Fewer Conditions

Pressure 29.79 in
Visibility 10.0 miles
Clouds Clear
Dew Point 48 °F
Humidity 30%
Rainfall 0.00 in
Snow Depth Not available.
UV 9 out of 12
Pollen 8.70 out of 12
Air Quality Not available.
Flu Activity Local Activity
METAR KILE 251635Z AUTO 27011G16KT 10SM CLR 28/09 A2979 RMK AO1

More Conditions Fewer Conditions

10-Day Weather Forecast

Almanac

Astronomy

Apr. 25, 2015 Rise Set
Actual Time
Civil Twilight
Nautical Twilight
Astronomical Twilight
Moon
Length of Visible Light
Length of Day
Tomorrow will be .
, % of the Moon is Illuminated

Today's Extremes

State Highs State Lows

Community

WunderPhotos

Upload Photos

1,816,737 photos uploaded!

WunderBlogs® & News

Nearby

Air Quality

  Air Quality AQ Index Pollutant
Not available.

Snow Depth

Station Depth Elevation

Earthquake Activity

City Distance Mag. Time & Date
Minimum magnitude displayed is 2.5.

Coastal Water Temperatures

Place Temperature

Stations

Nearby Weather Stations

Station Location Temp. Windchill Dew Point Humidity Wind Precip. Elev Updated Type